sensor_id;sensor_type;location;lat;lon;timestamp;temperature;humidity
49242;DHT22;35079;52.704;13.814;2022-08-01T00:01:11;20.70;99.90
49242;DHT22;35079;52.704;13.814;2022-08-01T00:03:37;20.70;99.90
49242;DHT22;35079;52.704;13.814;2022-08-01T00:06:21;20.70;99.90
49242;DHT22;35079;52.704;13.814;2022-08-01T00:08:47;20.70;99.90
49242;DHT22;35079;52.704;13.814;2022-08-01T00:11:16;20.80;99.90
49242;DHT22;35079;52.704;13.814;2022-08-01T00:16:45;20.80;99.90
49242;DHT22;35079;52.704;13.814;2022-08-01T00:19:15;20.80;99.90
49242;DHT22;35079;52.704;13.814;2022-08-01T00:21:41;20.80;99.90
49242;DHT22;35079;52.704;13.814;2022-08-01T00:24:06;20.80;99.90
49242;DHT22;35079;52.704;13.814;2022-08-01T00:26:32;20.90;99.90
49242;DHT22;35079;52.704;13.814;2022-08-01T00:28:58;20.70;99.90
49242;DHT22;35079;52.704;13.814;2022-08-01T00:31:24;20.70;99.90
49242;DHT22;35079;52.704;13.814;2022-08-01T00:33:49;20.70;99.90
49242;DHT22;35079;52.704;13.814;2022-08-01T00:36:15;20.70;99.90
49242;DHT22;35079;52.704;13.814;2022-08-01T00:38:41;20.70;99.90
49242;DHT22;35079;52.704;13.814;2022-08-01T00:41:07;20.70;99.90
49242;DHT22;35079;52.704;13.814;2022-08-01T00:43:35;20.80;99.90
49242;DHT22;35079;52.704;13.814;2022-08-01T00:46:04;20.50;99.90
49242;DHT22;35079;52.704;13.814;2022-08-01T00:48:35;20.60;99.90
49242;DHT22;35079;52.704;13.814;2022-08-01T00:51:04;20.60;99.90
49242;DHT22;35079;52.704;13.814;2022-08-01T00:53:30;20.60;99.90
49242;DHT22;35079;52.704;13.814;2022-08-01T00:55:59;20.60;99.90
49242;DHT22;35079;52.704;13.814;2022-08-01T00:58:25;20.60;99.90
49242;DHT22;35079;52.704;13.814;2022-08-01T01:01:00;20.60;99.90
49242;DHT22;35079;52.704;13.814;2022-08-01T01:03:26;20.60;99.90
49242;DHT22;35079;52.704;13.814;2022-08-01T01:09:02;20.60;99.90
49242;DHT22;35079;52.704;13.814;2022-08-01T01:11:41;20.60;99.90
49242;DHT22;35079;52.704;13.814;2022-08-01T01:14:13;20.60;99.90
49242;DHT22;35079;52.704;13.814;2022-08-01T01:16:41;20.50;99.90
49242;DHT22;35079;52.704;13.814;2022-08-01T01:19:13;20.40;99.90
49242;DHT22;35079;52.704;13.814;2022-08-01T01:22:00;20.30;99.90
49242;DHT22;35079;52.704;13.814;2022-08-01T01:25:08;20.10;99.90
49242;DHT22;35079;52.704;13.814;2022-08-01T01:30:40;19.90;99.90
49242;DHT22;35079;52.704;13.814;2022-08-01T01:33:08;19.80;99.90
49242;DHT22;35079;52.704;13.814;2022-08-01T01:35:37;19.60;99.90
49242;DHT22;35079;52.704;13.814;2022-08-01T01:38:10;19.50;99.90
49242;DHT22;35079;52.704;13.814;2022-08-01T01:40:39;19.30;99.90
49242;DHT22;35079;52.704;13.814;2022-08-01T01:43:09;19.10;99.90
49242;DHT22;35079;52.704;13.814;2022-08-01T01:45:36;19.00;99.90
49242;DHT22;35079;52.704;13.814;2022-08-01T01:48:03;18.90;99.90
49242;DHT22;35079;52.704;13.814;2022-08-01T01:50:29;18.70;99.90
49242;DHT22;35079;52.704;13.814;2022-08-01T01:52:56;18.70;99.90
49242;DHT22;35079;52.704;13.814;2022-08-01T01:55:24;18.60;99.90
49242;DHT22;35079;52.704;13.814;2022-08-01T01:57:52;18.60;99.90
49242;DHT22;35079;52.704;13.814;2022-08-01T02:00:19;18.60;99.90
49242;DHT22;35079;52.704;13.814;2022-08-01T02:02:45;18.50;99.90
49242;DHT22;35079;52.704;13.814;2022-08-01T02:05:12;18.40;99.90
49242;DHT22;35079;52.704;13.814;2022-08-01T02:07:39;18.40;99.90
49242;DHT22;35079;52.704;13.814;2022-08-01T02:10:05;18.40;99.90
49242;DHT22;35079;52.704;13.814;2022-08-01T02:12:35;18.40;99.90
49242;DHT22;35079;52.704;13.814;2022-08-01T02:15:05;18.40;99.90
49242;DHT22;35079;52.704;13.814;2022-08-01T02:17:31;18.40;99.90
49242;DHT22;35079;52.704;13.814;2022-08-01T02:19:57;18.30;99.90
49242;DHT22;35079;52.704;13.814;2022-08-01T02:22:30;18.30;99.90
49242;DHT22;35079;52.704;13.814;2022-08-01T02:25:20;18.40;99.90
49242;DHT22;35079;52.704;13.814;2022-08-01T02:28:09;18.30;99.90
49242;DHT22;35079;52.704;13.814;2022-08-01T02:30:38;18.30;99.90
49242;DHT22;35079;52.704;13.814;2022-08-01T02:33:19;18.30;99.90
49242;DHT22;35079;52.704;13.814;2022-08-01T02:35:58;18.30;99.90
49242;DHT22;35079;52.704;13.814;2022-08-01T02:38:27;18.20;99.90
49242;DHT22;35079;52.704;13.814;2022-08-01T02:40:56;18.20;99.90
49242;DHT22;35079;52.704;13.814;2022-08-01T02:43:26;18.20;99.90
49242;DHT22;35079;52.704;13.814;2022-08-01T02:45:59;18.20;99.90
49242;DHT22;35079;52.704;13.814;2022-08-01T02:48:26;18.10;99.90
49242;DHT22;35079;52.704;13.814;2022-08-01T02:50:55;18.20;99.90
49242;DHT22;35079;52.704;13.814;2022-08-01T02:53:24;18.10;99.90
49242;DHT22;35079;52.704;13.814;2022-08-01T02:55:51;18.00;99.90
49242;DHT22;35079;52.704;13.814;2022-08-01T02:58:19;18.10;99.90
49242;DHT22;35079;52.704;13.814;2022-08-01T03:00:46;18.00;99.90
49242;DHT22;35079;52.704;13.814;2022-08-01T03:03:18;18.00;99.90
49242;DHT22;35079;52.704;13.814;2022-08-01T03:05:45;17.90;99.90
49242;DHT22;35079;52.704;13.814;2022-08-01T03:08:12;18.00;99.90
49242;DHT22;35079;52.704;13.814;2022-08-01T03:10:42;17.90;99.90
49242;DHT22;35079;52.704;13.814;2022-08-01T03:13:09;17.80;99.90
49242;DHT22;35079;52.704;13.814;2022-08-01T03:15:39;17.90;99.90
49242;DHT22;35079;52.704;13.814;2022-08-01T03:18:07;17.90;99.90
49242;DHT22;35079;52.704;13.814;2022-08-01T03:20:34;17.80;99.90
49242;DHT22;35079;52.704;13.814;2022-08-01T03:23:04;17.80;99.90
49242;DHT22;35079;52.704;13.814;2022-08-01T03:25:31;17.80;99.90
49242;DHT22;35079;52.704;13.814;2022-08-01T03:28:01;17.80;99.90
49242;DHT22;35079;52.704;13.814;2022-08-01T03:30:31;17.80;99.90
49242;DHT22;35079;52.704;13.814;2022-08-01T03:32:58;17.70;99.90
49242;DHT22;35079;52.704;13.814;2022-08-01T03:35:43;17.70;99.90
49242;DHT22;35079;52.704;13.814;2022-08-01T03:38:12;17.70;99.90
49242;DHT22;35079;52.704;13.814;2022-08-01T03:40:43;17.70;99.90
49242;DHT22;35079;52.704;13.814;2022-08-01T03:43:34;17.70;99.90
49242;DHT22;35079;52.704;13.814;2022-08-01T03:46:07;17.70;99.90
49242;DHT22;35079;52.704;13.814;2022-08-01T03:48:39;17.70;99.90
49242;DHT22;35079;52.704;13.814;2022-08-01T03:51:07;17.80;99.90
49242;DHT22;35079;52.704;13.814;2022-08-01T03:53:34;17.80;99.90
49242;DHT22;35079;52.704;13.814;2022-08-01T03:56:02;17.80;99.90
49242;DHT22;35079;52.704;13.814;2022-08-01T03:58:29;17.90;99.90
49242;DHT22;35079;52.704;13.814;2022-08-01T04:00:56;17.90;99.90
49242;DHT22;35079;52.704;13.814;2022-08-01T04:03:23;17.90;99.90
49242;DHT22;35079;52.704;13.814;2022-08-01T04:05:49;18.10;99.90
49242;DHT22;35079;52.704;13.814;2022-08-01T04:08:15;18.00;99.90
49242;DHT22;35079;52.704;13.814;2022-08-01T04:10:41;18.00;99.90
49242;DHT22;35079;52.704;13.814;2022-08-01T04:13:07;18.10;99.90
49242;DHT22;35079;52.704;13.814;2022-08-01T04:15:35;18.10;99.90
49242;DHT22;35079;52.704;13.814;2022-08-01T04:18:01;18.00;99.90
49242;DHT22;35079;52.704;13.814;2022-08-01T04:20:27;18.10;99.90
49242;DHT22;35079;52.704;13.814;2022-08-01T04:22:52;18.00;99.90
49242;DHT22;35079;52.704;13.814;2022-08-01T04:27:48;18.10;99.90
49242;DHT22;35079;52.704;13.814;2022-08-01T04:30:16;18.00;99.90
49242;DHT22;35079;52.704;13.814;2022-08-01T04:32:43;18.10;99.90
49242;DHT22;35079;52.704;13.814;2022-08-01T04:35:13;18.10;99.90
49242;DHT22;35079;52.704;13.814;2022-08-01T04:37:43;18.10;99.90
49242;DHT22;35079;52.704;13.814;2022-08-01T04:40:11;18.20;99.90
49242;DHT22;35079;52.704;13.814;2022-08-01T04:42:37;18.20;99.90
49242;DHT22;35079;52.704;13.814;2022-08-01T04:45:03;18.30;99.90
49242;DHT22;35079;52.704;13.814;2022-08-01T04:47:30;18.40;99.90
49242;DHT22;35079;52.704;13.814;2022-08-01T04:49:56;18.50;99.90
49242;DHT22;35079;52.704;13.814;2022-08-01T04:52:22;18.60;99.90
49242;DHT22;35079;52.704;13.814;2022-08-01T04:54:48;18.70;99.90
49242;DHT22;35079;52.704;13.814;2022-08-01T04:57:14;18.80;99.90
49242;DHT22;35079;52.704;13.814;2022-08-01T04:59:43;18.90;99.90
49242;DHT22;35079;52.704;13.814;2022-08-01T05:02:16;18.90;99.90
49242;DHT22;35079;52.704;13.814;2022-08-01T05:04:43;19.00;99.90
49242;DHT22;35079;52.704;13.814;2022-08-01T05:07:09;19.10;99.90
49242;DHT22;35079;52.704;13.814;2022-08-01T05:09:36;19.30;99.90
49242;DHT22;35079;52.704;13.814;2022-08-01T05:12:04;19.30;99.90
49242;DHT22;35079;52.704;13.814;2022-08-01T05:14:31;19.40;99.90
49242;DHT22;35079;52.704;13.814;2022-08-01T05:17:01;19.50;99.90
49242;DHT22;35079;52.704;13.814;2022-08-01T05:19:29;19.60;99.90
49242;DHT22;35079;52.704;13.814;2022-08-01T05:21:57;19.60;99.90
49242;DHT22;35079;52.704;13.814;2022-08-01T05:24:28;19.50;99.90
49242;DHT22;35079;52.704;13.814;2022-08-01T05:26:55;19.50;99.90
49242;DHT22;35079;52.704;13.814;2022-08-01T05:29:21;19.50;99.90
49242;DHT22;35079;52.704;13.814;2022-08-01T05:31:47;19.40;99.90
49242;DHT22;35079;52.704;13.814;2022-08-01T05:34:12;19.50;99.90
49242;DHT22;35079;52.704;13.814;2022-08-01T05:36:38;19.40;99.90
49242;DHT22;35079;52.704;13.814;2022-08-01T05:39:04;19.50;99.90
49242;DHT22;35079;52.704;13.814;2022-08-01T05:41:30;19.60;99.90
49242;DHT22;35079;52.704;13.814;2022-08-01T05:43:56;19.70;99.90
49242;DHT22;35079;52.704;13.814;2022-08-01T05:46:22;19.60;99.90
49242;DHT22;35079;52.704;13.814;2022-08-01T05:48:47;19.60;99.90
49242;DHT22;35079;52.704;13.814;2022-08-01T05:51:13;19.60;99.90
49242;DHT22;35079;52.704;13.814;2022-08-01T05:53:39;19.60;99.90
49242;DHT22;35079;52.704;13.814;2022-08-01T05:56:04;19.50;99.90
49242;DHT22;35079;52.704;13.814;2022-08-01T05:58:30;19.50;99.90
49242;DHT22;35079;52.704;13.814;2022-08-01T06:00:57;19.40;99.90
49242;DHT22;35079;52.704;13.814;2022-08-01T06:03:23;19.50;99.90
49242;DHT22;35079;52.704;13.814;2022-08-01T06:05:49;19.50;99.90
49242;DHT22;35079;52.704;13.814;2022-08-01T06:08:16;19.50;99.90
49242;DHT22;35079;52.704;13.814;2022-08-01T06:10:42;19.50;99.90
49242;DHT22;35079;52.704;13.814;2022-08-01T06:13:09;19.50;99.90
49242;DHT22;35079;52.704;13.814;2022-08-01T06:15:35;19.60;99.90
49242;DHT22;35079;52.704;13.814;2022-08-01T06:18:00;19.40;99.90
49242;DHT22;35079;52.704;13.814;2022-08-01T06:20:26;19.50;99.90
49242;DHT22;35079;52.704;13.814;2022-08-01T06:22:52;19.40;99.90
49242;DHT22;35079;52.704;13.814;2022-08-01T06:25:18;19.40;99.90
49242;DHT22;35079;52.704;13.814;2022-08-01T06:27:44;19.30;99.90
49242;DHT22;35079;52.704;13.814;2022-08-01T06:30:11;19.30;99.90
49242;DHT22;35079;52.704;13.814;2022-08-01T06:32:37;19.30;99.90
49242;DHT22;35079;52.704;13.814;2022-08-01T06:35:03;19.30;99.90
49242;DHT22;35079;52.704;13.814;2022-08-01T06:37:29;19.30;99.90
49242;DHT22;35079;52.704;13.814;2022-08-01T06:39:56;19.40;99.90
49242;DHT22;35079;52.704;13.814;2022-08-01T06:42:22;19.30;99.90
49242;DHT22;35079;52.704;13.814;2022-08-01T06:44:47;19.40;99.90
49242;DHT22;35079;52.704;13.814;2022-08-01T06:47:13;19.30;99.90
49242;DHT22;35079;52.704;13.814;2022-08-01T06:49:39;19.40;99.90
49242;DHT22;35079;52.704;13.814;2022-08-01T06:52:04;19.30;99.90
49242;DHT22;35079;52.704;13.814;2022-08-01T06:54:30;19.40;99.90
49242;DHT22;35079;52.704;13.814;2022-08-01T06:56:56;19.40;99.90
49242;DHT22;35079;52.704;13.814;2022-08-01T06:59:22;19.50;99.90
49242;DHT22;35079;52.704;13.814;2022-08-01T07:01:48;19.50;99.90
49242;DHT22;35079;52.704;13.814;2022-08-01T07:04:14;19.60;99.90
49242;DHT22;35079;52.704;13.814;2022-08-01T07:06:47;19.80;99.90
49242;DHT22;35079;52.704;13.814;2022-08-01T07:09:35;19.90;99.90
49242;DHT22;35079;52.704;13.814;2022-08-01T07:12:39;20.00;99.90
49242;DHT22;35079;52.704;13.814;2022-08-01T07:15:10;20.10;99.90
49242;DHT22;35079;52.704;13.814;2022-08-01T07:17:47;20.20;99.90
49242;DHT22;35079;52.704;13.814;2022-08-01T07:20:31;20.20;99.90
49242;DHT22;35079;52.704;13.814;2022-08-01T07:22:56;20.20;99.90
49242;DHT22;35079;52.704;13.814;2022-08-01T07:25:51;20.20;99.90
49242;DHT22;35079;52.704;13.814;2022-08-01T07:29:02;20.20;99.90
49242;DHT22;35079;52.704;13.814;2022-08-01T07:31:37;20.20;99.90
49242;DHT22;35079;52.704;13.814;2022-08-01T07:37:15;20.20;99.90
49242;DHT22;35079;52.704;13.814;2022-08-01T07:43:15;20.30;99.90
49242;DHT22;35079;52.704;13.814;2022-08-01T07:46:25;20.30;99.90
49242;DHT22;35079;52.704;13.814;2022-08-01T07:48:51;20.30;99.90
49242;DHT22;35079;52.704;13.814;2022-08-01T07:51:42;20.30;99.90
49242;DHT22;35079;52.704;13.814;2022-08-01T07:54:33;20.30;99.90
49242;DHT22;35079;52.704;13.814;2022-08-01T07:57:00;20.20;99.90
49242;DHT22;35079;52.704;13.814;2022-08-01T08:03:07;20.40;99.90
49242;DHT22;35079;52.704;13.814;2022-08-01T08:05:42;20.60;99.90
49242;DHT22;35079;52.704;13.814;2022-08-01T08:08:08;20.80;99.90
49242;DHT22;35079;52.704;13.814;2022-08-01T08:11:22;20.90;99.90
49242;DHT22;35079;52.704;13.814;2022-08-01T08:13:47;21.10;99.90
49242;DHT22;35079;52.704;13.814;2022-08-01T08:16:12;21.50;99.90
49242;DHT22;35079;52.704;13.814;2022-08-01T08:18:38;21.80;99.90
49242;DHT22;35079;52.704;13.814;2022-08-01T08:21:04;21.70;99.90
49242;DHT22;35079;52.704;13.814;2022-08-01T08:23:30;21.60;99.90
49242;DHT22;35079;52.704;13.814;2022-08-01T08:26:14;21.50;99.90
49242;DHT22;35079;52.704;13.814;2022-08-01T08:28:39;21.50;99.90
49242;DHT22;35079;52.704;13.814;2022-08-01T08:31:05;21.60;99.90
49242;DHT22;35079;52.704;13.814;2022-08-01T08:33:31;21.80;99.90
49242;DHT22;35079;52.704;13.814;2022-08-01T08:35:56;22.10;99.90
49242;DHT22;35079;52.704;13.814;2022-08-01T08:38:22;22.00;99.90
49242;DHT22;35079;52.704;13.814;2022-08-01T08:40:51;21.80;99.90
49242;DHT22;35079;52.704;13.814;2022-08-01T08:43:17;21.70;99.90
49242;DHT22;35079;52.704;13.814;2022-08-01T08:45:45;21.60;99.90
49242;DHT22;35079;52.704;13.814;2022-08-01T08:48:18;21.40;99.90
49242;DHT22;35079;52.704;13.814;2022-08-01T08:50:45;21.30;99.90
49242;DHT22;35079;52.704;13.814;2022-08-01T08:53:32;21.20;99.90
49242;DHT22;35079;52.704;13.814;2022-08-01T08:56:02;21.20;99.90
49242;DHT22;35079;52.704;13.814;2022-08-01T08:58:30;21.30;99.90
49242;DHT22;35079;52.704;13.814;2022-08-01T09:00:59;21.30;99.90
49242;DHT22;35079;52.704;13.814;2022-08-01T09:03:28;21.40;99.90
49242;DHT22;35079;52.704;13.814;2022-08-01T09:05:54;21.30;99.90
49242;DHT22;35079;52.704;13.814;2022-08-01T09:08:20;21.20;99.90
49242;DHT22;35079;52.704;13.814;2022-08-01T09:10:46;21.10;99.90
49242;DHT22;35079;52.704;13.814;2022-08-01T09:13:14;21.10;99.90
49242;DHT22;35079;52.704;13.814;2022-08-01T09:15:45;21.20;99.90
49242;DHT22;35079;52.704;13.814;2022-08-01T09:22:00;21.00;99.90
49242;DHT22;35079;52.704;13.814;2022-08-01T09:24:27;21.00;99.90
49242;DHT22;35079;52.704;13.814;2022-08-01T09:26:54;20.90;99.90
49242;DHT22;35079;52.704;13.814;2022-08-01T09:29:29;21.10;99.90
49242;DHT22;35079;52.704;13.814;2022-08-01T09:31:55;21.20;99.90
49242;DHT22;35079;52.704;13.814;2022-08-01T09:34:31;21.40;99.90
49242;DHT22;35079;52.704;13.814;2022-08-01T09:37:02;21.60;99.90
49242;DHT22;35079;52.704;13.814;2022-08-01T09:39:36;21.80;99.90
49242;DHT22;35079;52.704;13.814;2022-08-01T09:42:20;22.10;99.90
49242;DHT22;35079;52.704;13.814;2022-08-01T09:44:46;22.30;99.90
49242;DHT22;35079;52.704;13.814;2022-08-01T09:47:13;22.50;99.90
49242;DHT22;35079;52.704;13.814;2022-08-01T09:49:40;22.50;99.90
49242;DHT22;35079;52.704;13.814;2022-08-01T09:54:36;22.20;99.90
49242;DHT22;35079;52.704;13.814;2022-08-01T09:57:16;22.20;99.90
49242;DHT22;35079;52.704;13.814;2022-08-01T09:59:44;22.20;99.90
49242;DHT22;35079;52.704;13.814;2022-08-01T10:02:12;22.10;99.90
49242;DHT22;35079;52.704;13.814;2022-08-01T10:04:50;22.10;99.90
49242;DHT22;35079;52.704;13.814;2022-08-01T10:07:17;22.10;99.90
49242;DHT22;35079;52.704;13.814;2022-08-01T10:09:43;22.00;99.90
49242;DHT22;35079;52.704;13.814;2022-08-01T10:12:11;22.00;99.90
49242;DHT22;35079;52.704;13.814;2022-08-01T10:14:41;22.00;99.90
49242;DHT22;35079;52.704;13.814;2022-08-01T10:17:09;21.90;99.90
49242;DHT22;35079;52.704;13.814;2022-08-01T10:19:36;21.90;99.90
49242;DHT22;35079;52.704;13.814;2022-08-01T10:22:07;21.90;99.90
49242;DHT22;35079;52.704;13.814;2022-08-01T10:24:36;22.00;99.90
49242;DHT22;35079;52.704;13.814;2022-08-01T10:27:05;22.10;99.90
49242;DHT22;35079;52.704;13.814;2022-08-01T10:30:02;22.20;99.90
49242;DHT22;35079;52.704;13.814;2022-08-01T10:32:29;22.20;99.90
49242;DHT22;35079;52.704;13.814;2022-08-01T10:34:56;22.10;99.90
49242;DHT22;35079;52.704;13.814;2022-08-01T10:37:22;22.10;99.90
49242;DHT22;35079;52.704;13.814;2022-08-01T10:39:50;22.10;99.90
49242;DHT22;35079;52.704;13.814;2022-08-01T10:42:18;22.20;99.90
49242;DHT22;35079;52.704;13.814;2022-08-01T10:44:44;22.40;99.90
49242;DHT22;35079;52.704;13.814;2022-08-01T10:47:27;22.50;99.90
49242;DHT22;35079;52.704;13.814;2022-08-01T10:50:08;22.60;99.90
49242;DHT22;35079;52.704;13.814;2022-08-01T10:52:36;22.60;99.90
49242;DHT22;35079;52.704;13.814;2022-08-01T10:55:06;22.80;99.90
49242;DHT22;35079;52.704;13.814;2022-08-01T10:57:45;22.80;99.90
49242;DHT22;35079;52.704;13.814;2022-08-01T11:00:18;22.90;99.90
49242;DHT22;35079;52.704;13.814;2022-08-01T11:03:01;22.90;99.90
49242;DHT22;35079;52.704;13.814;2022-08-01T11:05:31;22.70;99.90
49242;DHT22;35079;52.704;13.814;2022-08-01T11:08:01;22.60;99.90
49242;DHT22;35079;52.704;13.814;2022-08-01T11:10:37;22.40;99.90
49242;DHT22;35079;52.704;13.814;2022-08-01T11:13:04;22.20;99.90
49242;DHT22;35079;52.704;13.814;2022-08-01T11:15:33;21.90;99.90
49242;DHT22;35079;52.704;13.814;2022-08-01T11:18:01;21.80;99.90
49242;DHT22;35079;52.704;13.814;2022-08-01T11:23:52;21.50;99.90
49242;DHT22;35079;52.704;13.814;2022-08-01T11:26:19;21.40;99.90
49242;DHT22;35079;52.704;13.814;2022-08-01T11:29:12;21.20;99.90
49242;DHT22;35079;52.704;13.814;2022-08-01T11:31:38;21.20;99.90
49242;DHT22;35079;52.704;13.814;2022-08-01T11:34:04;21.10;99.90
49242;DHT22;35079;52.704;13.814;2022-08-01T11:36:34;21.20;99.90
49242;DHT22;35079;52.704;13.814;2022-08-01T11:41:31;21.50;99.90
49242;DHT22;35079;52.704;13.814;2022-08-01T11:46:57;21.90;99.90
49242;DHT22;35079;52.704;13.814;2022-08-01T11:52:27;22.10;99.90
49242;DHT22;35079;52.704;13.814;2022-08-01T11:55:13;22.10;99.90
49242;DHT22;35079;52.704;13.814;2022-08-01T11:57:40;22.20;99.90
49242;DHT22;35079;52.704;13.814;2022-08-01T12:00:15;22.10;99.90
49242;DHT22;35079;52.704;13.814;2022-08-01T12:02:41;22.10;99.90
49242;DHT22;35079;52.704;13.814;2022-08-01T12:05:17;22.10;99.90
49242;DHT22;35079;52.704;13.814;2022-08-01T12:07:49;22.00;99.90
49242;DHT22;35079;52.704;13.814;2022-08-01T12:10:18;22.10;99.90
49242;DHT22;35079;52.704;13.814;2022-08-01T12:12:50;22.20;99.90
49242;DHT22;35079;52.704;13.814;2022-08-01T12:15:17;22.50;99.90
49242;DHT22;35079;52.704;13.814;2022-08-01T12:17:47;22.80;99.90
49242;DHT22;35079;52.704;13.814;2022-08-01T12:20:16;22.90;99.90
49242;DHT22;35079;52.704;13.814;2022-08-01T12:22:44;23.20;99.90
49242;DHT22;35079;52.704;13.814;2022-08-01T12:27:38;23.10;99.90
49242;DHT22;35079;52.704;13.814;2022-08-01T12:30:09;22.80;99.90
49242;DHT22;35079;52.704;13.814;2022-08-01T12:32:36;22.40;99.90
49242;DHT22;35079;52.704;13.814;2022-08-01T12:35:17;22.30;99.90
49242;DHT22;35079;52.704;13.814;2022-08-01T12:37:54;22.00;99.90
49242;DHT22;35079;52.704;13.814;2022-08-01T12:40:23;21.90;99.90
49242;DHT22;35079;52.704;13.814;2022-08-01T12:42:51;21.70;99.90
49242;DHT22;35079;52.704;13.814;2022-08-01T12:45:19;21.60;99.90
49242;DHT22;35079;52.704;13.814;2022-08-01T12:47:46;21.70;99.90
49242;DHT22;35079;52.704;13.814;2022-08-01T12:50:15;21.80;99.90
49242;DHT22;35079;52.704;13.814;2022-08-01T12:52:42;21.70;99.90
49242;DHT22;35079;52.704;13.814;2022-08-01T12:55:19;21.80;99.90
49242;DHT22;35079;52.704;13.814;2022-08-01T12:57:47;21.90;99.90
49242;DHT22;35079;52.704;13.814;2022-08-01T13:00:21;21.90;99.90
49242;DHT22;35079;52.704;13.814;2022-08-01T13:02:47;21.90;99.90
49242;DHT22;35079;52.704;13.814;2022-08-01T13:05:14;22.20;99.90
49242;DHT22;35079;52.704;13.814;2022-08-01T13:07:43;22.40;99.90
49242;DHT22;35079;52.704;13.814;2022-08-01T13:10:10;22.50;99.90
49242;DHT22;35079;52.704;13.814;2022-08-01T13:12:37;22.50;99.90
49242;DHT22;35079;52.704;13.814;2022-08-01T13:17:49;22.60;99.90
49242;DHT22;35079;52.704;13.814;2022-08-01T13:20:25;22.90;99.90
49242;DHT22;35079;52.704;13.814;2022-08-01T13:22:51;23.00;99.90
49242;DHT22;35079;52.704;13.814;2022-08-01T13:25:18;23.10;99.90
49242;DHT22;35079;52.704;13.814;2022-08-01T13:27:44;23.20;99.90
49242;DHT22;35079;52.704;13.814;2022-08-01T13:30:14;23.10;99.90
49242;DHT22;35079;52.704;13.814;2022-08-01T13:32:40;23.20;99.90
49242;DHT22;35079;52.704;13.814;2022-08-01T13:35:10;23.40;99.90
49242;DHT22;35079;52.704;13.814;2022-08-01T13:37:38;23.40;99.90
49242;DHT22;35079;52.704;13.814;2022-08-01T13:40:05;23.60;99.90
49242;DHT22;35079;52.704;13.814;2022-08-01T13:42:31;23.60;99.90
49242;DHT22;35079;52.704;13.814;2022-08-01T13:44:57;23.40;99.90
49242;DHT22;35079;52.704;13.814;2022-08-01T13:47:23;23.20;99.90
49242;DHT22;35079;52.704;13.814;2022-08-01T13:49:48;22.90;99.90
49242;DHT22;35079;52.704;13.814;2022-08-01T13:52:14;22.80;99.90
49242;DHT22;35079;52.704;13.814;2022-08-01T13:54:40;22.60;99.90
49242;DHT22;35079;52.704;13.814;2022-08-01T13:57:05;22.60;99.90
49242;DHT22;35079;52.704;13.814;2022-08-01T13:59:31;22.40;99.90
49242;DHT22;35079;52.704;13.814;2022-08-01T14:01:56;22.30;99.90
49242;DHT22;35079;52.704;13.814;2022-08-01T14:04:23;22.20;99.90
49242;DHT22;35079;52.704;13.814;2022-08-01T14:06:48;22.10;99.90
49242;DHT22;35079;52.704;13.814;2022-08-01T14:09:14;22.20;99.90
49242;DHT22;35079;52.704;13.814;2022-08-01T14:11:43;22.20;99.90
49242;DHT22;35079;52.704;13.814;2022-08-01T14:14:08;22.30;99.90
49242;DHT22;35079;52.704;13.814;2022-08-01T14:16:34;22.50;99.90
49242;DHT22;35079;52.704;13.814;2022-08-01T14:19:00;22.50;99.90
49242;DHT22;35079;52.704;13.814;2022-08-01T14:21:25;22.70;99.90
49242;DHT22;35079;52.704;13.814;2022-08-01T14:23:51;22.80;99.90
49242;DHT22;35079;52.704;13.814;2022-08-01T14:26:17;23.00;99.90
49242;DHT22;35079;52.704;13.814;2022-08-01T14:28:42;23.30;99.90
49242;DHT22;35079;52.704;13.814;2022-08-01T14:31:08;23.40;99.90
49242;DHT22;35079;52.704;13.814;2022-08-01T14:33:34;23.60;99.90
49242;DHT22;35079;52.704;13.814;2022-08-01T14:36:00;23.60;99.90
49242;DHT22;35079;52.704;13.814;2022-08-01T14:38:25;23.50;99.90
49242;DHT22;35079;52.704;13.814;2022-08-01T14:40:51;23.60;99.90
49242;DHT22;35079;52.704;13.814;2022-08-01T14:43:17;23.50;99.90
49242;DHT22;35079;52.704;13.814;2022-08-01T14:45:44;23.50;99.90
49242;DHT22;35079;52.704;13.814;2022-08-01T14:48:09;23.40;99.90
49242;DHT22;35079;52.704;13.814;2022-08-01T14:50:35;23.30;99.90
49242;DHT22;35079;52.704;13.814;2022-08-01T14:53:02;23.10;99.90
49242;DHT22;35079;52.704;13.814;2022-08-01T14:55:27;23.00;99.90
49242;DHT22;35079;52.704;13.814;2022-08-01T14:57:53;23.00;99.90
49242;DHT22;35079;52.704;13.814;2022-08-01T15:00:19;23.00;99.90
49242;DHT22;35079;52.704;13.814;2022-08-01T15:02:45;22.90;99.90
49242;DHT22;35079;52.704;13.814;2022-08-01T15:05:11;22.90;99.90
49242;DHT22;35079;52.704;13.814;2022-08-01T15:07:37;22.80;99.90
49242;DHT22;35079;52.704;13.814;2022-08-01T15:10:06;22.90;99.90
49242;DHT22;35079;52.704;13.814;2022-08-01T15:12:32;22.80;99.90
49242;DHT22;35079;52.704;13.814;2022-08-01T15:14:59;22.80;99.90
49242;DHT22;35079;52.704;13.814;2022-08-01T15:17:27;22.80;99.90
49242;DHT22;35079;52.704;13.814;2022-08-01T15:19:58;22.70;99.90
49242;DHT22;35079;52.704;13.814;2022-08-01T15:22:25;22.80;99.90
49242;DHT22;35079;52.704;13.814;2022-08-01T15:24:52;22.80;99.90
49242;DHT22;35079;52.704;13.814;2022-08-01T15:27:18;22.90;99.90
49242;DHT22;35079;52.704;13.814;2022-08-01T15:29:44;23.10;99.90
49242;DHT22;35079;52.704;13.814;2022-08-01T15:32:10;23.20;99.90
49242;DHT22;35079;52.704;13.814;2022-08-01T15:34:37;23.40;99.90
49242;DHT22;35079;52.704;13.814;2022-08-01T15:37:04;23.40;99.90
49242;DHT22;35079;52.704;13.814;2022-08-01T15:39:31;23.40;99.90
49242;DHT22;35079;52.704;13.814;2022-08-01T15:41:59;23.60;99.90
49242;DHT22;35079;52.704;13.814;2022-08-01T15:44:26;23.40;99.90
49242;DHT22;35079;52.704;13.814;2022-08-01T15:46:52;23.20;99.90
49242;DHT22;35079;52.704;13.814;2022-08-01T15:49:17;23.20;99.90
49242;DHT22;35079;52.704;13.814;2022-08-01T15:51:44;23.20;99.90
49242;DHT22;35079;52.704;13.814;2022-08-01T15:54:10;23.30;99.90
49242;DHT22;35079;52.704;13.814;2022-08-01T15:56:36;23.20;99.90
49242;DHT22;35079;52.704;13.814;2022-08-01T15:59:03;23.40;99.90
49242;DHT22;35079;52.704;13.814;2022-08-01T16:01:29;23.50;99.90
49242;DHT22;35079;52.704;13.814;2022-08-01T16:03:55;23.60;99.90
49242;DHT22;35079;52.704;13.814;2022-08-01T16:06:22;23.60;99.90
49242;DHT22;35079;52.704;13.814;2022-08-01T16:08:48;23.70;99.90
49242;DHT22;35079;52.704;13.814;2022-08-01T16:11:14;23.70;99.90
49242;DHT22;35079;52.704;13.814;2022-08-01T16:13:39;23.70;99.90